createdAt,value
2023-01-07T00:02:06.027Z,9.41
2023-01-07T00:05:08.456Z,9.37
2023-01-07T00:08:11.395Z,9.37
2023-01-07T00:11:15.641Z,9.39
2023-01-07T00:14:18.398Z,9.30
2023-01-07T00:17:21.815Z,9.20
2023-01-07T00:20:23.149Z,9.31
2023-01-07T00:23:26.226Z,9.07
2023-01-07T00:26:30.544Z,9.11
2023-01-07T00:29:33.217Z,9.20
2023-01-07T00:36:15.718Z,9.25
2023-01-07T00:39:21.238Z,9.13
2023-01-07T00:42:40.765Z,8.99
2023-01-07T00:49:05.545Z,9.08
2023-01-07T00:52:08.387Z,9.10
2023-01-07T00:55:11.725Z,9.19
2023-01-07T00:58:16.581Z,9.25
2023-01-07T01:01:18.003Z,9.32
2023-01-07T01:07:41.519Z,9.21
2023-01-07T01:14:05.506Z,9.12
2023-01-07T01:17:08.099Z,9.16
2023-01-07T01:20:13.769Z,9.03
2023-01-07T01:23:16.394Z,8.98
2023-01-07T01:26:17.771Z,9.03
2023-01-07T01:29:20.957Z,8.99
2023-01-07T01:32:22.383Z,8.94
2023-01-07T01:35:26.401Z,8.78
2023-01-07T01:38:30.735Z,8.81
2023-01-07T01:41:33.851Z,8.69
2023-01-07T01:44:41.132Z,8.79
2023-01-07T01:47:45.351Z,8.73
2023-01-07T01:50:50.880Z,8.78
2023-01-07T01:53:53.675Z,8.83
2023-01-07T01:57:00.936Z,8.81
2023-01-07T02:00:03.783Z,8.76
2023-01-07T02:03:10.578Z,8.71
2023-01-07T02:06:21.421Z,8.82
2023-01-07T02:09:24.084Z,8.78
2023-01-07T02:12:41.453Z,8.81
2023-01-07T02:15:52.578Z,8.78
2023-01-07T02:19:06.416Z,8.74
2023-01-07T02:22:18.236Z,8.59
2023-01-07T02:25:53.344Z,8.53
2023-01-07T02:29:25.264Z,8.64
2023-01-07T02:32:38.936Z,8.70
2023-01-07T02:35:55.945Z,8.79
2023-01-07T02:39:13.936Z,8.67
2023-01-07T02:42:25.532Z,8.54
2023-01-07T02:45:31.675Z,8.67
2023-01-07T02:48:36.601Z,8.69
2023-01-07T02:51:40.090Z,8.76
2023-01-07T02:54:42.831Z,8.80
2023-01-07T02:58:16.696Z,8.60
2023-01-07T03:01:33.642Z,8.20
2023-01-07T03:05:07.849Z,8.27
2023-01-07T03:08:24.461Z,8.49
2023-01-07T03:11:30.565Z,8.51
2023-01-07T03:14:40.843Z,8.58
2023-01-07T03:17:51.165Z,8.60
2023-01-07T03:20:58.999Z,8.63
2023-01-07T03:24:01.748Z,8.55
2023-01-07T03:27:07.066Z,8.53
2023-01-07T03:30:13.675Z,8.53
2023-01-07T03:33:20.642Z,8.44
2023-01-07T03:36:28.298Z,8.37
2023-01-07T03:39:32.570Z,8.46
2023-01-07T03:42:40.981Z,8.47
2023-01-07T03:45:42.686Z,8.57
2023-01-07T03:48:44.545Z,8.64
2023-01-07T03:51:48.590Z,8.73
2023-01-07T03:54:51.422Z,8.50
2023-01-07T03:57:52.784Z,8.39
2023-01-07T04:00:55.673Z,8.54
2023-01-07T04:03:57.148Z,8.55
2023-01-07T04:07:00.332Z,8.34
2023-01-07T04:10:02.892Z,8.17
2023-01-07T04:13:04.222Z,8.32
2023-01-07T04:16:07.154Z,8.08
2023-01-07T04:19:08.826Z,7.74
2023-01-07T04:22:12.752Z,7.51
2023-01-07T04:25:15.501Z,7.31
2023-01-07T04:28:16.776Z,7.21
2023-01-07T04:34:39.164Z,7.08
2023-01-07T04:37:44.780Z,7.06
2023-01-07T04:40:47.279Z,7.08
2023-01-07T04:43:49.995Z,7.04
2023-01-07T04:46:51.623Z,7.08
2023-01-07T04:49:54.169Z,7.06
2023-01-07T04:52:56.437Z,7.12
2023-01-07T04:55:59.049Z,7.13
2023-01-07T04:59:01.969Z,7.22
2023-01-07T05:02:05.081Z,7.26
2023-01-07T05:05:08.378Z,7.29
2023-01-07T05:08:10.664Z,7.36
2023-01-07T05:11:13.184Z,7.38
2023-01-07T05:14:15.733Z,7.43
2023-01-07T05:17:17.371Z,7.47
2023-01-07T05:20:19.944Z,7.47
2023-01-07T05:23:22.252Z,7.56
2023-01-07T05:26:24.841Z,7.57
2023-01-07T05:29:26.264Z,7.59
2023-01-07T05:32:28.811Z,7.70
2023-01-07T05:35:30.131Z,7.77
2023-01-07T05:41:54.460Z,7.79
2023-01-07T05:44:56.962Z,7.87
2023-01-07T05:47:58.334Z,7.82
2023-01-07T05:51:00.917Z,7.90
2023-01-07T05:54:03.022Z,8.02
2023-01-07T05:57:05.641Z,7.98
2023-01-07T06:00:09.627Z,7.96
2023-01-07T06:03:12.258Z,8.13
2023-01-07T06:06:13.709Z,8.11
2023-01-07T06:09:16.963Z,8.17
2023-01-07T06:12:18.385Z,8.20
2023-01-07T06:15:20.931Z,8.14
2023-01-07T06:18:22.231Z,8.19
2023-01-07T06:21:24.757Z,8.22
2023-01-07T06:24:26.724Z,8.32
2023-01-07T06:34:10.345Z,8.49
2023-01-07T06:37:12.510Z,8.40
2023-01-07T06:40:14.497Z,8.41
2023-01-07T06:43:17.423Z,8.39
2023-01-07T06:46:20.145Z,8.38
2023-01-07T06:49:21.548Z,8.36
2023-01-07T06:52:24.135Z,8.38
2023-01-07T06:55:26.404Z,8.42
2023-01-07T06:58:28.942Z,8.48
2023-01-07T07:01:31.799Z,8.57
2023-01-07T07:04:33.198Z,8.64
2023-01-07T07:07:35.780Z,8.53
2023-01-07T07:10:37.786Z,8.55
2023-01-07T07:13:40.368Z,8.62
2023-01-07T07:16:43.014Z,8.54
2023-01-07T07:19:44.346Z,8.63
2023-01-07T07:22:48.560Z,8.62
2023-01-07T07:25:50.495Z,8.57
2023-01-07T07:28:53.071Z,8.57
2023-01-07T07:31:54.433Z,8.60
2023-01-07T07:34:57.237Z,8.69
2023-01-07T07:37:58.531Z,8.68
2023-01-07T07:41:02.618Z,8.76
2023-01-07T07:44:04.291Z,8.74
2023-01-07T07:47:06.827Z,8.92
2023-01-07T07:50:08.322Z,8.84
2023-01-07T07:53:11.915Z,8.80
2023-01-07T07:56:14.025Z,8.80
2023-01-07T07:59:16.597Z,8.77
2023-01-07T08:02:18.612Z,8.71
2023-01-07T08:05:21.505Z,8.74
2023-01-07T08:08:24.122Z,8.85
2023-01-07T08:11:26.421Z,8.90
2023-01-07T08:14:29.033Z,8.93
2023-01-07T08:17:30.353Z,8.94
2023-01-07T08:20:33.419Z,9.03
2023-01-07T08:23:36.008Z,9.05
2023-01-07T08:26:38.299Z,9.14
2023-01-07T08:29:40.962Z,9.11
2023-01-07T08:32:42.449Z,9.23
2023-01-07T08:35:45.316Z,9.24
2023-01-07T08:38:51.643Z,9.21
2023-01-07T08:41:53.846Z,9.20
2023-01-07T08:44:56.535Z,9.34
2023-01-07T08:47:58.920Z,9.32
2023-01-07T08:51:01.527Z,9.86
2023-01-07T08:54:04.684Z,10.49
2023-01-07T08:57:06.979Z,10.53
2023-01-07T09:00:11.540Z,10.34
2023-01-07T09:03:13.360Z,10.11
2023-01-07T09:12:57.591Z,9.92
2023-01-07T09:15:59.392Z,9.88
2023-01-07T09:22:21.976Z,9.71
2023-01-07T09:25:23.427Z,9.75
2023-01-07T09:28:25.660Z,9.75
2023-01-07T09:31:29.089Z,9.82
2023-01-07T09:34:32.664Z,9.82
2023-01-07T09:37:34.055Z,9.91
2023-01-07T09:40:39.799Z,9.89
2023-01-07T09:44:00.919Z,9.89
2023-01-07T09:47:07.265Z,9.98
2023-01-07T09:50:23.252Z,10.04
2023-01-07T09:53:30.409Z,10.16
2023-01-07T09:56:34.832Z,10.35
2023-01-07T09:59:36.861Z,10.30
2023-01-07T10:02:50.671Z,10.42
2023-01-07T10:06:04.529Z,10.46
2023-01-07T10:12:43.060Z,10.49
2023-01-07T10:15:59.839Z,10.34
2023-01-07T10:22:36.709Z,10.52
2023-01-07T10:25:44.949Z,10.46
2023-01-07T10:28:51.554Z,10.46
2023-01-07T10:31:56.793Z,10.51
2023-01-07T10:35:01.150Z,10.58
2023-01-07T10:38:04.225Z,10.76
2023-01-07T10:41:13.801Z,10.86
2023-01-07T10:44:50.517Z,11.08
2023-01-07T10:48:18.007Z,11.18
2023-01-07T10:51:49.220Z,11.00
2023-01-07T10:55:16.283Z,10.89
2023-01-07T10:58:17.610Z,10.86
2023-01-07T11:01:25.949Z,10.86
2023-01-07T11:04:27.981Z,10.89
2023-01-07T11:10:59.677Z,10.93
2023-01-07T11:14:04.229Z,11.08
2023-01-07T11:17:11.301Z,11.35
2023-01-07T11:20:13.537Z,11.09
2023-01-07T11:26:50.388Z,10.87
2023-01-07T11:29:57.016Z,11.02
2023-01-07T11:33:03.738Z,10.95
2023-01-07T11:36:09.321Z,10.98
2023-01-07T11:39:19.430Z,10.96
2023-01-07T11:42:40.379Z,10.95
2023-01-07T11:46:19.982Z,11.06
2023-01-07T11:49:22.282Z,11.11
2023-01-07T11:52:24.571Z,11.48
2023-01-07T11:55:28.116Z,11.83
2023-01-07T11:58:32.345Z,12.27
2023-01-07T12:01:42.251Z,12.44
2023-01-07T12:04:44.876Z,12.52
2023-01-07T12:07:48.590Z,12.08
2023-01-07T12:10:56.788Z,12.15
2023-01-07T12:14:07.228Z,11.84
2023-01-07T12:17:16.593Z,11.63
2023-01-07T12:20:36.904Z,11.75
2023-01-07T12:23:50.050Z,11.57
2023-01-07T12:26:58.937Z,11.63
2023-01-07T12:30:15.163Z,11.52
2023-01-07T12:37:02.367Z,11.56
2023-01-07T12:40:22.832Z,11.56
2023-01-07T12:43:33.715Z,11.48
2023-01-07T12:46:42.483Z,11.42
2023-01-07T12:49:50.591Z,11.54
2023-01-07T12:52:58.665Z,11.43
2023-01-07T12:56:10.484Z,11.59
2023-01-07T12:59:47.198Z,11.54
2023-01-07T13:02:48.826Z,11.52
2023-01-07T13:05:54.063Z,11.63
2023-01-07T13:09:03.236Z,11.57
2023-01-07T13:12:41.996Z,11.46
2023-01-07T13:15:43.971Z,11.56
2023-01-07T13:18:46.777Z,11.57
2023-01-07T13:21:50.405Z,11.63
2023-01-07T13:25:04.853Z,11.57
2023-01-07T13:28:25.721Z,11.43
2023-01-07T13:31:42.571Z,11.49
2023-01-07T13:34:57.048Z,11.46
2023-01-07T13:38:12.307Z,11.40
2023-01-07T13:41:36.964Z,11.43
2023-01-07T13:44:55.441Z,11.35
2023-01-07T13:47:59.788Z,11.26
2023-01-07T13:51:03.668Z,11.26
2023-01-07T13:54:11.798Z,11.34
2023-01-07T13:57:43.352Z,11.39
2023-01-07T14:01:02.693Z,11.40
2023-01-07T14:04:35.173Z,11.35
2023-01-07T14:07:45.491Z,11.49
2023-01-07T14:10:54.177Z,11.49
2023-01-07T14:14:05.471Z,11.38
2023-01-07T14:17:19.393Z,11.30
2023-01-07T14:20:31.534Z,11.43
2023-01-07T14:23:43.013Z,11.43
2023-01-07T14:26:55.169Z,11.35
2023-01-07T14:30:15.310Z,11.13
2023-01-07T14:33:23.236Z,11.05
2023-01-07T14:36:45.495Z,11.06
2023-01-07T14:39:48.207Z,10.96
2023-01-07T14:42:49.522Z,10.97
2023-01-07T14:45:54.389Z,10.76
2023-01-07T14:49:20.740Z,10.82
2023-01-07T14:52:48.709Z,10.73
2023-01-07T14:56:05.635Z,10.66
2023-01-07T14:59:23.137Z,10.65
2023-01-07T15:03:13.479Z,10.52
2023-01-07T15:06:26.732Z,10.39
2023-01-07T15:09:57.014Z,10.31
2023-01-07T15:13:19.420Z,10.29
2023-01-07T15:16:23.455Z,10.25
2023-01-07T15:19:25.036Z,10.16
2023-01-07T15:23:01.034Z,10.15
2023-01-07T15:26:09.472Z,10.11
2023-01-07T15:29:20.671Z,10.14
2023-01-07T15:32:34.875Z,10.11
2023-01-07T15:35:41.388Z,10.03
2023-01-07T15:38:50.676Z,10.07
2023-01-07T15:41:54.336Z,9.91
2023-01-07T15:44:59.400Z,9.98
2023-01-07T15:48:07.062Z,9.88
2023-01-07T15:51:15.169Z,9.88
2023-01-07T15:54:29.279Z,9.80
2023-01-07T15:57:34.919Z,9.72
2023-01-07T16:00:36.347Z,9.73
2023-01-07T16:03:40.253Z,9.75
2023-01-07T16:06:45.359Z,9.78
2023-01-07T16:09:47.576Z,9.71
2023-01-07T16:12:52.016Z,9.74
2023-01-07T16:15:55.236Z,9.90
2023-01-07T16:18:58.412Z,10.05
2023-01-07T16:22:00.683Z,9.98
2023-01-07T16:25:10.836Z,9.97
2023-01-07T16:28:19.136Z,10.05
2023-01-07T16:31:24.087Z,10.19
2023-01-07T16:34:56.706Z,10.28
2023-01-07T16:37:59.980Z,10.15
2023-01-07T16:41:03.197Z,10.14
2023-01-07T16:44:04.783Z,10.15
2023-01-07T16:47:22.414Z,10.28
2023-01-07T16:50:38.278Z,10.26
2023-01-07T16:53:39.719Z,10.20
2023-01-07T16:56:47.731Z,10.13
2023-01-07T16:59:53.477Z,10.22
2023-01-07T17:02:58.943Z,10.26
2023-01-07T17:06:03.899Z,10.36
2023-01-07T17:09:07.090Z,10.32
2023-01-07T17:12:26.236Z,10.26
2023-01-07T17:15:38.524Z,10.36
2023-01-07T17:18:41.140Z,10.28
2023-01-07T17:21:43.490Z,10.25
2023-01-07T17:24:46.777Z,10.21
2023-01-07T17:27:53.109Z,10.28
2023-01-07T17:30:55.853Z,10.28
2023-01-07T17:33:57.121Z,10.27
2023-01-07T17:36:59.882Z,10.26
2023-01-07T17:40:01.172Z,10.35
2023-01-07T17:43:22.808Z,10.40
2023-01-07T17:46:24.264Z,10.44
2023-01-07T17:49:27.384Z,10.37
2023-01-07T17:52:29.371Z,10.39
2023-01-07T17:55:35.066Z,10.38
2023-01-07T17:58:40.294Z,10.44
2023-01-07T18:01:41.858Z,10.45
2023-01-07T18:04:44.491Z,10.32
2023-01-07T18:07:46.471Z,10.37
2023-01-07T18:11:09.009Z,10.35
2023-01-07T18:14:14.205Z,10.45
2023-01-07T18:17:17.363Z,10.32
2023-01-07T18:20:20.755Z,10.30
2023-01-07T18:23:23.760Z,10.21
2023-01-07T18:26:25.434Z,10.38
2023-01-07T18:29:40.090Z,10.40
2023-01-07T18:32:41.921Z,10.34
2023-01-07T18:39:05.644Z,10.23
2023-01-07T18:42:07.248Z,10.23
2023-01-07T18:45:10.246Z,10.30
2023-01-07T18:48:12.834Z,10.27
2023-01-07T18:51:14.183Z,10.36
2023-01-07T18:54:17.798Z,10.27
2023-01-07T18:57:19.334Z,10.36
2023-01-07T19:00:23.749Z,10.33
2023-01-07T19:03:28.075Z,10.36
2023-01-07T19:06:30.206Z,10.52
2023-01-07T19:09:31.786Z,10.40
2023-01-07T19:12:33.164Z,10.34
2023-01-07T19:15:35.954Z,10.45
2023-01-07T19:18:43.539Z,10.35
2023-01-07T19:21:47.209Z,10.38
2023-01-07T19:24:57.011Z,10.33
2023-01-07T19:27:58.894Z,10.38
2023-01-07T19:31:05.434Z,10.38
2023-01-07T19:34:08.996Z,10.35
2023-01-07T19:37:10.367Z,10.59
2023-01-07T19:40:14.259Z,10.91
2023-01-07T19:43:15.845Z,11.04
2023-01-07T19:46:18.718Z,11.27
2023-01-07T19:49:20.584Z,11.15
2023-01-07T19:52:22.230Z,11.41
2023-01-07T19:55:25.153Z,11.59
2023-01-07T19:58:26.670Z,11.65
2023-01-07T20:01:29.128Z,11.40
2023-01-07T20:04:31.928Z,11.59
2023-01-07T20:07:34.215Z,11.42
2023-01-07T20:10:36.133Z,11.36
2023-01-07T20:13:39.160Z,11.50
2023-01-07T20:16:42.951Z,11.46
2023-01-07T20:19:44.350Z,11.47
2023-01-07T20:22:47.417Z,11.41
2023-01-07T20:25:48.813Z,11.38
2023-01-07T20:32:12.781Z,11.32
2023-01-07T20:35:15.699Z,11.04
2023-01-07T20:38:17.000Z,10.86
2023-01-07T20:41:20.970Z,10.95
2023-01-07T20:44:22.651Z,10.76
2023-01-07T20:47:25.041Z,10.86
2023-01-07T20:50:26.635Z,11.01
2023-01-07T20:53:31.241Z,11.20
2023-01-07T20:56:33.946Z,11.02
2023-01-07T20:59:35.564Z,11.14
2023-01-07T21:02:39.418Z,11.21
2023-01-07T21:05:40.885Z,10.95
2023-01-07T21:08:44.267Z,10.93
2023-01-07T21:11:46.790Z,11.03
2023-01-07T21:14:49.303Z,10.90
2023-01-07T21:17:54.794Z,10.86
2023-01-07T21:20:56.228Z,10.93
2023-01-07T21:23:58.992Z,11.00
2023-01-07T21:27:00.368Z,10.89
2023-01-07T21:30:05.734Z,10.78
2023-01-07T21:33:11.840Z,10.84
2023-01-07T21:36:15.324Z,10.74
2023-01-07T21:39:18.392Z,10.68
2023-01-07T21:42:21.712Z,10.70
2023-01-07T21:45:23.015Z,10.78
2023-01-07T21:48:26.204Z,10.96
2023-01-07T21:51:27.908Z,10.74
2023-01-07T21:54:29.252Z,10.67
2023-01-07T21:57:31.913Z,10.90
2023-01-07T22:00:33.284Z,10.85
2023-01-07T22:03:37.927Z,10.85
2023-01-07T22:06:39.511Z,10.83
2023-01-07T22:09:42.465Z,10.50
2023-01-07T22:12:45.029Z,10.73
2023-01-07T22:15:48.122Z,10.71
2023-01-07T22:18:50.122Z,10.62
2023-01-07T22:21:53.512Z,10.75
2023-01-07T22:24:56.056Z,10.87
2023-01-07T22:27:59.961Z,10.79
2023-01-07T22:31:05.774Z,10.68
2023-01-07T22:34:10.352Z,10.61
2023-01-07T22:37:15.257Z,10.56
2023-01-07T22:40:18.213Z,10.65
2023-01-07T22:43:24.546Z,10.52
2023-01-07T22:46:30.114Z,10.56
2023-01-07T22:49:34.010Z,10.64
2023-01-07T22:52:36.645Z,10.58
2023-01-07T22:55:41.332Z,10.57
2023-01-07T22:58:43.862Z,10.34
2023-01-07T23:01:45.227Z,10.44
2023-01-07T23:04:48.513Z,10.45
2023-01-07T23:07:49.815Z,10.44
2023-01-07T23:10:52.378Z,10.55
2023-01-07T23:13:53.675Z,10.52
2023-01-07T23:16:57.454Z,10.45
2023-01-07T23:20:00.983Z,10.50
2023-01-07T23:23:04.117Z,10.55
2023-01-07T23:26:07.521Z,10.52
2023-01-07T23:29:09.950Z,10.42
2023-01-07T23:32:13.791Z,10.27
2023-01-07T23:35:16.246Z,10.41
2023-01-07T23:38:18.878Z,10.42
2023-01-07T23:41:20.201Z,10.39
2023-01-07T23:44:22.926Z,10.60
2023-01-07T23:47:25.576Z,10.19
2023-01-07T23:50:28.178Z,10.16
2023-01-07T23:53:30.743Z,10.21
2023-01-07T23:56:33.656Z,10.12
2023-01-07T23:59:35.158Z,10.04
